sensor_id;sensor_type;location;lat;lon;timestamp;P1;durP1;ratioP1;P2;durP2;ratioP2
41514;SDS011;27247;48.020;16.720;2023-04-06T00:01:57;16.30;;;7.32;;
41514;SDS011;27247;48.020;16.720;2023-04-06T00:06:08;18.80;;;7.13;;
41514;SDS011;27247;48.020;16.720;2023-04-06T00:10:18;12.63;;;6.00;;
41514;SDS011;27247;48.020;16.720;2023-04-06T00:14:28;18.20;;;6.30;;
41514;SDS011;27247;48.020;16.720;2023-04-06T00:18:39;13.40;;;6.00;;
41514;SDS011;27247;48.020;16.720;2023-04-06T00:22:49;12.13;;;6.55;;
41514;SDS011;27247;48.020;16.720;2023-04-06T00:27:00;12.93;;;5.97;;
41514;SDS011;27247;48.020;16.720;2023-04-06T00:31:11;18.92;;;7.55;;
41514;SDS011;27247;48.020;16.720;2023-04-06T00:35:21;14.45;;;6.90;;
41514;SDS011;27247;48.020;16.720;2023-04-06T00:39:32;16.97;;;7.43;;
41514;SDS011;27247;48.020;16.720;2023-04-06T00:43:42;13.40;;;7.10;;
41514;SDS011;27247;48.020;16.720;2023-04-06T00:47:52;16.67;;;8.23;;
41514;SDS011;27247;48.020;16.720;2023-04-06T00:52:02;14.85;;;7.88;;
41514;SDS011;27247;48.020;16.720;2023-04-06T00:56:13;10.13;;;5.72;;
41514;SDS011;27247;48.020;16.720;2023-04-06T01:00:23;15.60;;;6.93;;
41514;SDS011;27247;48.020;16.720;2023-04-06T01:04:34;15.52;;;7.10;;
41514;SDS011;27247;48.020;16.720;2023-04-06T01:08:45;14.73;;;7.28;;
41514;SDS011;27247;48.020;16.720;2023-04-06T01:12:55;16.65;;;7.07;;
41514;SDS011;27247;48.020;16.720;2023-04-06T01:17:05;14.43;;;7.13;;
41514;SDS011;27247;48.020;16.720;2023-04-06T01:21:16;13.00;;;6.40;;
41514;SDS011;27247;48.020;16.720;2023-04-06T01:25:26;16.83;;;6.90;;
41514;SDS011;27247;48.020;16.720;2023-04-06T01:29:36;11.48;;;6.50;;
41514;SDS011;27247;48.020;16.720;2023-04-06T01:33:47;12.27;;;6.45;;
41514;SDS011;27247;48.020;16.720;2023-04-06T01:37:57;13.80;;;6.53;;
41514;SDS011;27247;48.020;16.720;2023-04-06T01:42:08;12.00;;;6.27;;
41514;SDS011;27247;48.020;16.720;2023-04-06T01:46:18;14.63;;;7.60;;
41514;SDS011;27247;48.020;16.720;2023-04-06T01:50:28;14.30;;;7.47;;
41514;SDS011;27247;48.020;16.720;2023-04-06T01:54:39;14.35;;;7.22;;
41514;SDS011;27247;48.020;16.720;2023-04-06T01:58:49;9.88;;;6.30;;
41514;SDS011;27247;48.020;16.720;2023-04-06T02:03:00;19.40;;;9.53;;
41514;SDS011;27247;48.020;16.720;2023-04-06T02:07:10;17.85;;;8.07;;
41514;SDS011;27247;48.020;16.720;2023-04-06T02:11:20;12.95;;;7.65;;
41514;SDS011;27247;48.020;16.720;2023-04-06T02:15:31;13.40;;;7.43;;
41514;SDS011;27247;48.020;16.720;2023-04-06T02:19:41;15.60;;;8.10;;
41514;SDS011;27247;48.020;16.720;2023-04-06T02:23:51;11.73;;;7.60;;
41514;SDS011;27247;48.020;16.720;2023-04-06T02:28:02;15.50;;;8.23;;
41514;SDS011;27247;48.020;16.720;2023-04-06T02:32:12;11.60;;;6.80;;
41514;SDS011;27247;48.020;16.720;2023-04-06T02:36:22;15.00;;;8.17;;
41514;SDS011;27247;48.020;16.720;2023-04-06T02:40:33;19.07;;;10.30;;
41514;SDS011;27247;48.020;16.720;2023-04-06T02:44:43;20.30;;;10.83;;
41514;SDS011;27247;48.020;16.720;2023-04-06T02:48:53;20.20;;;9.85;;
41514;SDS011;27247;48.020;16.720;2023-04-06T02:53:04;16.13;;;7.80;;
41514;SDS011;27247;48.020;16.720;2023-04-06T02:57:15;17.70;;;8.83;;
41514;SDS011;27247;48.020;16.720;2023-04-06T03:01:25;14.43;;;8.10;;
41514;SDS011;27247;48.020;16.720;2023-04-06T03:05:36;16.83;;;8.82;;
41514;SDS011;27247;48.020;16.720;2023-04-06T03:09:46;17.00;;;9.05;;
41514;SDS011;27247;48.020;16.720;2023-04-06T03:13:57;16.95;;;11.65;;
41514;SDS011;27247;48.020;16.720;2023-04-06T03:18:07;16.83;;;9.55;;
41514;SDS011;27247;48.020;16.720;2023-04-06T03:22:17;20.23;;;9.63;;
41514;SDS011;27247;48.020;16.720;2023-04-06T03:26:27;18.48;;;10.43;;
41514;SDS011;27247;48.020;16.720;2023-04-06T03:30:38;21.87;;;9.60;;
41514;SDS011;27247;48.020;16.720;2023-04-06T03:34:48;17.33;;;11.03;;
41514;SDS011;27247;48.020;16.720;2023-04-06T03:38:58;18.80;;;10.85;;
41514;SDS011;27247;48.020;16.720;2023-04-06T03:43:09;18.50;;;10.23;;
41514;SDS011;27247;48.020;16.720;2023-04-06T03:47:19;19.67;;;11.80;;
41514;SDS011;27247;48.020;16.720;2023-04-06T03:51:30;17.67;;;12.77;;
41514;SDS011;27247;48.020;16.720;2023-04-06T03:55:40;22.83;;;13.25;;
41514;SDS011;27247;48.020;16.720;2023-04-06T03:59:51;23.02;;;12.57;;
41514;SDS011;27247;48.020;16.720;2023-04-06T04:04:01;20.83;;;12.02;;
41514;SDS011;27247;48.020;16.720;2023-04-06T04:08:11;22.25;;;12.23;;
41514;SDS011;27247;48.020;16.720;2023-04-06T04:12:22;21.30;;;11.55;;
41514;SDS011;27247;48.020;16.720;2023-04-06T04:16:32;24.33;;;11.80;;
41514;SDS011;27247;48.020;16.720;2023-04-06T04:20:42;19.73;;;10.65;;
41514;SDS011;27247;48.020;16.720;2023-04-06T04:24:53;24.02;;;12.27;;
41514;SDS011;27247;48.020;16.720;2023-04-06T04:29:03;16.83;;;11.73;;
41514;SDS011;27247;48.020;16.720;2023-04-06T04:33:14;23.00;;;12.60;;
41514;SDS011;27247;48.020;16.720;2023-04-06T04:37:24;26.80;;;11.85;;
41514;SDS011;27247;48.020;16.720;2023-04-06T04:41:35;21.48;;;12.95;;
41514;SDS011;27247;48.020;16.720;2023-04-06T04:45:45;21.48;;;13.50;;
41514;SDS011;27247;48.020;16.720;2023-04-06T04:49:56;24.27;;;15.37;;
41514;SDS011;27247;48.020;16.720;2023-04-06T04:54:06;45.27;;;21.03;;
41514;SDS011;27247;48.020;16.720;2023-04-06T04:58:16;36.08;;;17.63;;
41514;SDS011;27247;48.020;16.720;2023-04-06T05:02:28;23.10;;;14.02;;
41514;SDS011;27247;48.020;16.720;2023-04-06T05:06:39;34.60;;;13.63;;
41514;SDS011;27247;48.020;16.720;2023-04-06T05:10:49;21.00;;;10.70;;
41514;SDS011;27247;48.020;16.720;2023-04-06T05:15:00;25.88;;;10.35;;
41514;SDS011;27247;48.020;16.720;2023-04-06T05:19:11;22.45;;;10.77;;
41514;SDS011;27247;48.020;16.720;2023-04-06T05:23:21;20.85;;;10.30;;
41514;SDS011;27247;48.020;16.720;2023-04-06T05:27:31;19.53;;;9.60;;
41514;SDS011;27247;48.020;16.720;2023-04-06T05:31:42;16.87;;;9.30;;
41514;SDS011;27247;48.020;16.720;2023-04-06T05:35:52;17.52;;;10.07;;
41514;SDS011;27247;48.020;16.720;2023-04-06T05:40:02;18.20;;;9.40;;
41514;SDS011;27247;48.020;16.720;2023-04-06T05:44:13;16.33;;;9.23;;
41514;SDS011;27247;48.020;16.720;2023-04-06T05:48:24;16.98;;;10.02;;
41514;SDS011;27247;48.020;16.720;2023-04-06T05:52:34;22.23;;;10.45;;
41514;SDS011;27247;48.020;16.720;2023-04-06T05:56:45;22.63;;;10.40;;
41514;SDS011;27247;48.020;16.720;2023-04-06T06:00:59;15.02;;;10.32;;
41514;SDS011;27247;48.020;16.720;2023-04-06T06:05:10;20.13;;;11.23;;
41514;SDS011;27247;48.020;16.720;2023-04-06T06:09:20;16.25;;;10.82;;
41514;SDS011;27247;48.020;16.720;2023-04-06T06:13:31;20.42;;;12.48;;
41514;SDS011;27247;48.020;16.720;2023-04-06T06:17:41;16.98;;;10.85;;
41514;SDS011;27247;48.020;16.720;2023-04-06T06:21:51;19.43;;;10.50;;
41514;SDS011;27247;48.020;16.720;2023-04-06T06:26:01;21.40;;;10.60;;
41514;SDS011;27247;48.020;16.720;2023-04-06T06:30:12;15.52;;;10.98;;
41514;SDS011;27247;48.020;16.720;2023-04-06T06:34:22;21.33;;;10.43;;
41514;SDS011;27247;48.020;16.720;2023-04-06T06:38:33;20.70;;;11.18;;
41514;SDS011;27247;48.020;16.720;2023-04-06T06:42:43;23.87;;;10.90;;
41514;SDS011;27247;48.020;16.720;2023-04-06T06:51:07;19.85;;;10.45;;
41514;SDS011;27247;48.020;16.720;2023-04-06T06:55:17;18.67;;;10.95;;
41514;SDS011;27247;48.020;16.720;2023-04-06T06:59:29;20.20;;;10.38;;
41514;SDS011;27247;48.020;16.720;2023-04-06T07:03:39;14.97;;;9.93;;
41514;SDS011;27247;48.020;16.720;2023-04-06T07:07:49;14.60;;;9.30;;
41514;SDS011;27247;48.020;16.720;2023-04-06T07:12:00;14.68;;;9.23;;
41514;SDS011;27247;48.020;16.720;2023-04-06T07:16:11;17.95;;;9.73;;
41514;SDS011;27247;48.020;16.720;2023-04-06T07:20:22;15.68;;;9.35;;
41514;SDS011;27247;48.020;16.720;2023-04-06T07:24:32;13.73;;;9.00;;
41514;SDS011;27247;48.020;16.720;2023-04-06T07:28:42;17.73;;;9.57;;
41514;SDS011;27247;48.020;16.720;2023-04-06T07:32:53;15.93;;;9.23;;
41514;SDS011;27247;48.020;16.720;2023-04-06T07:37:05;19.33;;;9.18;;
41514;SDS011;27247;48.020;16.720;2023-04-06T07:41:15;14.57;;;8.63;;
41514;SDS011;27247;48.020;16.720;2023-04-06T07:45:26;13.27;;;7.50;;
41514;SDS011;27247;48.020;16.720;2023-04-06T07:49:37;11.48;;;7.35;;
41514;SDS011;27247;48.020;16.720;2023-04-06T07:53:47;14.13;;;7.10;;
41514;SDS011;27247;48.020;16.720;2023-04-06T07:57:58;11.60;;;7.15;;
41514;SDS011;27247;48.020;16.720;2023-04-06T08:02:09;12.02;;;7.30;;
41514;SDS011;27247;48.020;16.720;2023-04-06T08:06:20;13.57;;;7.30;;
41514;SDS011;27247;48.020;16.720;2023-04-06T08:10:31;13.75;;;7.32;;
41514;SDS011;27247;48.020;16.720;2023-04-06T08:14:41;13.73;;;7.68;;
41514;SDS011;27247;48.020;16.720;2023-04-06T08:18:51;12.43;;;8.53;;
41514;SDS011;27247;48.020;16.720;2023-04-06T08:23:02;13.63;;;7.87;;
41514;SDS011;27247;48.020;16.720;2023-04-06T08:27:12;13.70;;;7.40;;
41514;SDS011;27247;48.020;16.720;2023-04-06T08:31:24;13.38;;;8.30;;
41514;SDS011;27247;48.020;16.720;2023-04-06T08:35:36;15.02;;;8.32;;
41514;SDS011;27247;48.020;16.720;2023-04-06T08:39:46;14.25;;;7.68;;
41514;SDS011;27247;48.020;16.720;2023-04-06T08:43:57;13.48;;;7.70;;
41514;SDS011;27247;48.020;16.720;2023-04-06T08:48:09;16.83;;;7.75;;
41514;SDS011;27247;48.020;16.720;2023-04-06T08:52:21;15.27;;;8.20;;
41514;SDS011;27247;48.020;16.720;2023-04-06T08:56:33;11.95;;;7.43;;
41514;SDS011;27247;48.020;16.720;2023-04-06T09:00:48;11.32;;;7.10;;
41514;SDS011;27247;48.020;16.720;2023-04-06T09:05:00;11.00;;;7.25;;
41514;SDS011;27247;48.020;16.720;2023-04-06T09:09:11;11.50;;;7.28;;
41514;SDS011;27247;48.020;16.720;2023-04-06T09:13:21;10.35;;;7.60;;
41514;SDS011;27247;48.020;16.720;2023-04-06T09:17:32;12.52;;;7.00;;
41514;SDS011;27247;48.020;16.720;2023-04-06T09:21:43;10.98;;;6.45;;
41514;SDS011;27247;48.020;16.720;2023-04-06T09:30:23;12.93;;;5.97;;
41514;SDS011;27247;48.020;16.720;2023-04-06T09:34:40;9.63;;;6.18;;
41514;SDS011;27247;48.020;16.720;2023-04-06T09:38:52;9.75;;;6.07;;
41514;SDS011;27247;48.020;16.720;2023-04-06T09:43:07;11.68;;;6.88;;
41514;SDS011;27247;48.020;16.720;2023-04-06T09:47:18;10.57;;;5.63;;
41514;SDS011;27247;48.020;16.720;2023-04-06T09:51:30;21.70;;;5.90;;
41514;SDS011;27247;48.020;16.720;2023-04-06T09:55:45;7.82;;;4.45;;
41514;SDS011;27247;48.020;16.720;2023-04-06T10:00:03;6.90;;;3.78;;
41514;SDS011;27247;48.020;16.720;2023-04-06T10:04:43;7.97;;;4.13;;
41514;SDS011;27247;48.020;16.720;2023-04-06T10:08:59;6.30;;;3.92;;
41514;SDS011;27247;48.020;16.720;2023-04-06T10:13:13;13.73;;;4.93;;
41514;SDS011;27247;48.020;16.720;2023-04-06T10:17:23;10.35;;;3.90;;
41514;SDS011;27247;48.020;16.720;2023-04-06T10:21:37;7.32;;;4.47;;
41514;SDS011;27247;48.020;16.720;2023-04-06T10:25:56;8.52;;;4.90;;
41514;SDS011;27247;48.020;16.720;2023-04-06T10:30:07;11.30;;;5.50;;
41514;SDS011;27247;48.020;16.720;2023-04-06T10:34:18;9.75;;;5.32;;
41514;SDS011;27247;48.020;16.720;2023-04-06T10:38:35;8.43;;;5.07;;
41514;SDS011;27247;48.020;16.720;2023-04-06T10:42:46;8.73;;;5.03;;
41514;SDS011;27247;48.020;16.720;2023-04-06T10:46:58;8.43;;;4.53;;
41514;SDS011;27247;48.020;16.720;2023-04-06T10:51:13;9.98;;;4.60;;
41514;SDS011;27247;48.020;16.720;2023-04-06T10:55:25;5.43;;;3.70;;
41514;SDS011;27247;48.020;16.720;2023-04-06T10:59:41;6.78;;;3.45;;
41514;SDS011;27247;48.020;16.720;2023-04-06T11:03:53;11.43;;;4.25;;
41514;SDS011;27247;48.020;16.720;2023-04-06T11:08:05;5.57;;;3.20;;
41514;SDS011;27247;48.020;16.720;2023-04-06T11:12:21;4.57;;;3.35;;
41514;SDS011;27247;48.020;16.720;2023-04-06T11:16:35;4.03;;;3.00;;
41514;SDS011;27247;48.020;16.720;2023-04-06T11:20:47;5.85;;;3.60;;
41514;SDS011;27247;48.020;16.720;2023-04-06T11:25:05;6.05;;;3.03;;
41514;SDS011;27247;48.020;16.720;2023-04-06T11:29:17;5.35;;;3.13;;
41514;SDS011;27247;48.020;16.720;2023-04-06T11:33:29;4.00;;;2.88;;
41514;SDS011;27247;48.020;16.720;2023-04-06T11:37:45;6.85;;;3.33;;
41514;SDS011;27247;48.020;16.720;2023-04-06T11:41:59;6.18;;;3.65;;
41514;SDS011;27247;48.020;16.720;2023-04-06T11:46:12;5.88;;;2.97;;
41514;SDS011;27247;48.020;16.720;2023-04-06T11:50:33;4.75;;;3.30;;
41514;SDS011;27247;48.020;16.720;2023-04-06T11:54:46;6.25;;;3.20;;
41514;SDS011;27247;48.020;16.720;2023-04-06T11:58:58;6.72;;;3.60;;
41514;SDS011;27247;48.020;16.720;2023-04-06T12:03:09;4.07;;;3.08;;
41514;SDS011;27247;48.020;16.720;2023-04-06T12:07:20;4.80;;;3.45;;
41514;SDS011;27247;48.020;16.720;2023-04-06T12:11:32;7.03;;;3.80;;
41514;SDS011;27247;48.020;16.720;2023-04-06T12:15:42;4.97;;;3.80;;
41514;SDS011;27247;48.020;16.720;2023-04-06T12:19:52;4.45;;;3.60;;
41514;SDS011;27247;48.020;16.720;2023-04-06T12:24:03;5.75;;;4.32;;
41514;SDS011;27247;48.020;16.720;2023-04-06T12:28:14;5.72;;;4.65;;
41514;SDS011;27247;48.020;16.720;2023-04-06T12:32:25;6.30;;;4.53;;
41514;SDS011;27247;48.020;16.720;2023-04-06T12:36:36;6.67;;;4.53;;
41514;SDS011;27247;48.020;16.720;2023-04-06T12:40:48;5.70;;;4.68;;
41514;SDS011;27247;48.020;16.720;2023-04-06T12:44:58;5.60;;;4.47;;
41514;SDS011;27247;48.020;16.720;2023-04-06T12:49:08;7.67;;;4.20;;
41514;SDS011;27247;48.020;16.720;2023-04-06T12:53:19;4.80;;;4.07;;
41514;SDS011;27247;48.020;16.720;2023-04-06T12:57:30;6.93;;;4.97;;
41514;SDS011;27247;48.020;16.720;2023-04-06T13:01:41;5.32;;;4.30;;
41514;SDS011;27247;48.020;16.720;2023-04-06T13:05:51;6.25;;;4.63;;
41514;SDS011;27247;48.020;16.720;2023-04-06T13:10:01;7.72;;;4.68;;
41514;SDS011;27247;48.020;16.720;2023-04-06T13:14:12;10.40;;;4.65;;
41514;SDS011;27247;48.020;16.720;2023-04-06T13:18:22;7.73;;;4.73;;
41514;SDS011;27247;48.020;16.720;2023-04-06T13:22:32;5.50;;;4.70;;
41514;SDS011;27247;48.020;16.720;2023-04-06T13:26:43;6.38;;;4.75;;
41514;SDS011;27247;48.020;16.720;2023-04-06T13:30:54;5.97;;;3.90;;
41514;SDS011;27247;48.020;16.720;2023-04-06T13:35:05;6.05;;;4.30;;
41514;SDS011;27247;48.020;16.720;2023-04-06T13:39:17;7.40;;;5.50;;
41514;SDS011;27247;48.020;16.720;2023-04-06T13:43:27;6.60;;;4.43;;
41514;SDS011;27247;48.020;16.720;2023-04-06T13:47:37;6.80;;;4.80;;
41514;SDS011;27247;48.020;16.720;2023-04-06T13:51:48;5.47;;;4.57;;
41514;SDS011;27247;48.020;16.720;2023-04-06T13:55:58;6.03;;;4.27;;
41514;SDS011;27247;48.020;16.720;2023-04-06T14:00:08;6.00;;;4.23;;
41514;SDS011;27247;48.020;16.720;2023-04-06T14:08:35;7.28;;;4.88;;
41514;SDS011;27247;48.020;16.720;2023-04-06T14:12:46;6.37;;;4.47;;
41514;SDS011;27247;48.020;16.720;2023-04-06T14:16:56;8.02;;;4.47;;
41514;SDS011;27247;48.020;16.720;2023-04-06T14:21:06;4.53;;;4.10;;
41514;SDS011;27247;48.020;16.720;2023-04-06T14:25:17;6.73;;;4.50;;
41514;SDS011;27247;48.020;16.720;2023-04-06T14:29:27;8.73;;;4.30;;
41514;SDS011;27247;48.020;16.720;2023-04-06T14:33:37;5.45;;;3.90;;
41514;SDS011;27247;48.020;16.720;2023-04-06T14:37:47;6.10;;;3.93;;
41514;SDS011;27247;48.020;16.720;2023-04-06T14:41:58;6.30;;;4.40;;
41514;SDS011;27247;48.020;16.720;2023-04-06T14:46:08;6.73;;;4.60;;
41514;SDS011;27247;48.020;16.720;2023-04-06T14:50:19;6.90;;;4.68;;
41514;SDS011;27247;48.020;16.720;2023-04-06T14:54:30;8.73;;;3.72;;
41514;SDS011;27247;48.020;16.720;2023-04-06T14:58:40;4.90;;;4.33;;
41514;SDS011;27247;48.020;16.720;2023-04-06T15:02:50;4.60;;;4.20;;
41514;SDS011;27247;48.020;16.720;2023-04-06T15:07:02;9.13;;;4.38;;
41514;SDS011;27247;48.020;16.720;2023-04-06T15:11:12;7.45;;;4.45;;
41514;SDS011;27247;48.020;16.720;2023-04-06T15:15:23;14.57;;;4.00;;
41514;SDS011;27247;48.020;16.720;2023-04-06T15:19:33;6.32;;;4.10;;
41514;SDS011;27247;48.020;16.720;2023-04-06T15:23:44;6.72;;;4.43;;
41514;SDS011;27247;48.020;16.720;2023-04-06T15:27:56;10.05;;;4.80;;
41514;SDS011;27247;48.020;16.720;2023-04-06T15:32:06;7.47;;;4.28;;
41514;SDS011;27247;48.020;16.720;2023-04-06T15:40:37;4.72;;;4.00;;
41514;SDS011;27247;48.020;16.720;2023-04-06T15:44:52;5.65;;;4.10;;
41514;SDS011;27247;48.020;16.720;2023-04-06T15:49:03;8.90;;;3.83;;
41514;SDS011;27247;48.020;16.720;2023-04-06T15:53:14;7.22;;;4.43;;
41514;SDS011;27247;48.020;16.720;2023-04-06T15:57:24;6.63;;;4.05;;
41514;SDS011;27247;48.020;16.720;2023-04-06T16:01:35;5.43;;;4.07;;
41514;SDS011;27247;48.020;16.720;2023-04-06T16:05:45;6.50;;;4.40;;
41514;SDS011;27247;48.020;16.720;2023-04-06T16:09:56;5.03;;;4.15;;
41514;SDS011;27247;48.020;16.720;2023-04-06T16:14:07;5.70;;;4.07;;
41514;SDS011;27247;48.020;16.720;2023-04-06T16:18:17;5.18;;;4.25;;
41514;SDS011;27247;48.020;16.720;2023-04-06T16:22:27;5.53;;;4.30;;
41514;SDS011;27247;48.020;16.720;2023-04-06T16:26:38;7.88;;;4.63;;
41514;SDS011;27247;48.020;16.720;2023-04-06T16:30:49;6.78;;;4.38;;
41514;SDS011;27247;48.020;16.720;2023-04-06T16:34:59;8.02;;;4.10;;
41514;SDS011;27247;48.020;16.720;2023-04-06T16:39:09;8.27;;;4.82;;
41514;SDS011;27247;48.020;16.720;2023-04-06T16:43:20;8.48;;;5.00;;
41514;SDS011;27247;48.020;16.720;2023-04-06T16:47:30;7.40;;;4.53;;
41514;SDS011;27247;48.020;16.720;2023-04-06T16:51:40;6.27;;;4.90;;
41514;SDS011;27247;48.020;16.720;2023-04-06T16:55:51;8.90;;;4.47;;
41514;SDS011;27247;48.020;16.720;2023-04-06T17:00:01;6.53;;;4.93;;
41514;SDS011;27247;48.020;16.720;2023-04-06T17:04:14;8.32;;;5.40;;
41514;SDS011;27247;48.020;16.720;2023-04-06T17:08:24;8.30;;;5.47;;
41514;SDS011;27247;48.020;16.720;2023-04-06T17:12:35;7.07;;;5.20;;
41514;SDS011;27247;48.020;16.720;2023-04-06T17:16:45;6.50;;;5.13;;
41514;SDS011;27247;48.020;16.720;2023-04-06T17:20:56;8.05;;;4.60;;
41514;SDS011;27247;48.020;16.720;2023-04-06T17:25:07;9.15;;;5.40;;
41514;SDS011;27247;48.020;16.720;2023-04-06T17:29:18;7.35;;;5.03;;
41514;SDS011;27247;48.020;16.720;2023-04-06T17:33:28;8.10;;;5.07;;
41514;SDS011;27247;48.020;16.720;2023-04-06T17:37:41;7.88;;;5.20;;
41514;SDS011;27247;48.020;16.720;2023-04-06T17:41:54;12.32;;;5.07;;
41514;SDS011;27247;48.020;16.720;2023-04-06T17:46:04;6.37;;;4.60;;
41514;SDS011;27247;48.020;16.720;2023-04-06T17:50:15;6.50;;;4.70;;
41514;SDS011;27247;48.020;16.720;2023-04-06T17:54:25;23.42;;;9.75;;
41514;SDS011;27247;48.020;16.720;2023-04-06T17:58:36;21.35;;;10.63;;
41514;SDS011;27247;48.020;16.720;2023-04-06T18:02:46;10.10;;;6.20;;
41514;SDS011;27247;48.020;16.720;2023-04-06T18:06:57;9.67;;;4.83;;
41514;SDS011;27247;48.020;16.720;2023-04-06T18:11:17;8.18;;;4.70;;
41514;SDS011;27247;48.020;16.720;2023-04-06T18:15:28;7.43;;;4.80;;
41514;SDS011;27247;48.020;16.720;2023-04-06T18:19:40;7.28;;;5.15;;
41514;SDS011;27247;48.020;16.720;2023-04-06T18:23:50;6.67;;;4.30;;
41514;SDS011;27247;48.020;16.720;2023-04-06T18:28:01;7.20;;;4.30;;
41514;SDS011;27247;48.020;16.720;2023-04-06T18:32:13;6.82;;;4.25;;
41514;SDS011;27247;48.020;16.720;2023-04-06T18:36:25;7.07;;;5.00;;
41514;SDS011;27247;48.020;16.720;2023-04-06T18:40:36;5.30;;;4.30;;
41514;SDS011;27247;48.020;16.720;2023-04-06T18:44:48;5.75;;;4.45;;
41514;SDS011;27247;48.020;16.720;2023-04-06T18:48:58;8.25;;;5.78;;
41514;SDS011;27247;48.020;16.720;2023-04-06T18:53:08;13.60;;;8.77;;
41514;SDS011;27247;48.020;16.720;2023-04-06T18:57:19;13.60;;;8.50;;
41514;SDS011;27247;48.020;16.720;2023-04-06T19:01:30;11.85;;;8.55;;
41514;SDS011;27247;48.020;16.720;2023-04-06T19:05:42;14.52;;;9.32;;
41514;SDS011;27247;48.020;16.720;2023-04-06T19:09:52;16.48;;;9.32;;
41514;SDS011;27247;48.020;16.720;2023-04-06T19:14:03;16.00;;;9.52;;
41514;SDS011;27247;48.020;16.720;2023-04-06T19:18:13;13.43;;;8.70;;
41514;SDS011;27247;48.020;16.720;2023-04-06T19:22:23;16.50;;;9.80;;
41514;SDS011;27247;48.020;16.720;2023-04-06T19:26:34;15.10;;;10.10;;
41514;SDS011;27247;48.020;16.720;2023-04-06T19:30:44;15.50;;;9.63;;
41514;SDS011;27247;48.020;16.720;2023-04-06T19:34:55;13.05;;;8.90;;
41514;SDS011;27247;48.020;16.720;2023-04-06T19:39:05;17.58;;;10.27;;
41514;SDS011;27247;48.020;16.720;2023-04-06T19:43:16;15.65;;;9.95;;
41514;SDS011;27247;48.020;16.720;2023-04-06T19:47:27;20.10;;;10.70;;
41514;SDS011;27247;48.020;16.720;2023-04-06T19:51:38;14.15;;;10.10;;
41514;SDS011;27247;48.020;16.720;2023-04-06T19:55:48;17.38;;;9.95;;
41514;SDS011;27247;48.020;16.720;2023-04-06T19:59:59;18.52;;;10.80;;
41514;SDS011;27247;48.020;16.720;2023-04-06T20:04:10;16.08;;;9.95;;
41514;SDS011;27247;48.020;16.720;2023-04-06T20:08:21;13.93;;;10.20;;
41514;SDS011;27247;48.020;16.720;2023-04-06T20:12:31;17.25;;;10.68;;
41514;SDS011;27247;48.020;16.720;2023-04-06T20:16:42;19.13;;;10.80;;
41514;SDS011;27247;48.020;16.720;2023-04-06T20:20:52;17.73;;;10.60;;
41514;SDS011;27247;48.020;16.720;2023-04-06T20:25:03;21.95;;;12.55;;
41514;SDS011;27247;48.020;16.720;2023-04-06T20:29:14;20.27;;;12.30;;
41514;SDS011;27247;48.020;16.720;2023-04-06T20:33:25;20.58;;;11.05;;
41514;SDS011;27247;48.020;16.720;2023-04-06T20:37:36;18.65;;;11.85;;
41514;SDS011;27247;48.020;16.720;2023-04-06T20:41:46;19.20;;;11.25;;
41514;SDS011;27247;48.020;16.720;2023-04-06T20:45:57;17.85;;;11.43;;
41514;SDS011;27247;48.020;16.720;2023-04-06T20:50:08;20.10;;;12.15;;
41514;SDS011;27247;48.020;16.720;2023-04-06T20:54:18;20.98;;;12.48;;
41514;SDS011;27247;48.020;16.720;2023-04-06T20:58:29;18.15;;;11.50;;
41514;SDS011;27247;48.020;16.720;2023-04-06T21:02:39;19.63;;;11.15;;
41514;SDS011;27247;48.020;16.720;2023-04-06T21:06:50;19.83;;;11.90;;
41514;SDS011;27247;48.020;16.720;2023-04-06T21:11:00;21.55;;;12.57;;
41514;SDS011;27247;48.020;16.720;2023-04-06T21:15:11;21.65;;;12.68;;
41514;SDS011;27247;48.020;16.720;2023-04-06T21:19:21;21.43;;;13.03;;
41514;SDS011;27247;48.020;16.720;2023-04-06T21:23:32;24.02;;;13.48;;
41514;SDS011;27247;48.020;16.720;2023-04-06T21:27:42;23.67;;;12.90;;
41514;SDS011;27247;48.020;16.720;2023-04-06T21:31:52;23.77;;;13.50;;
41514;SDS011;27247;48.020;16.720;2023-04-06T21:36:05;25.23;;;14.57;;
41514;SDS011;27247;48.020;16.720;2023-04-06T21:40:16;25.90;;;14.93;;
41514;SDS011;27247;48.020;16.720;2023-04-06T21:44:28;22.77;;;13.75;;
41514;SDS011;27247;48.020;16.720;2023-04-06T21:48:38;22.13;;;13.57;;
41514;SDS011;27247;48.020;16.720;2023-04-06T21:52:48;25.70;;;12.53;;
41514;SDS011;27247;48.020;16.720;2023-04-06T21:56:59;22.38;;;13.80;;
41514;SDS011;27247;48.020;16.720;2023-04-06T22:01:10;24.38;;;14.27;;
41514;SDS011;27247;48.020;16.720;2023-04-06T22:05:21;22.98;;;14.65;;
41514;SDS011;27247;48.020;16.720;2023-04-06T22:09:31;23.87;;;14.20;;
41514;SDS011;27247;48.020;16.720;2023-04-06T22:13:41;22.13;;;14.10;;
41514;SDS011;27247;48.020;16.720;2023-04-06T22:17:52;24.08;;;14.43;;
41514;SDS011;27247;48.020;16.720;2023-04-06T22:22:02;21.10;;;13.33;;
41514;SDS011;27247;48.020;16.720;2023-04-06T22:26:13;22.08;;;13.43;;
41514;SDS011;27247;48.020;16.720;2023-04-06T22:30:23;26.27;;;14.88;;
41514;SDS011;27247;48.020;16.720;2023-04-06T22:34:33;23.95;;;14.82;;
41514;SDS011;27247;48.020;16.720;2023-04-06T22:38:44;24.53;;;14.80;;
41514;SDS011;27247;48.020;16.720;2023-04-06T22:42:54;22.80;;;14.38;;
41514;SDS011;27247;48.020;16.720;2023-04-06T22:47:04;21.37;;;14.13;;
41514;SDS011;27247;48.020;16.720;2023-04-06T22:51:14;23.33;;;14.43;;
41514;SDS011;27247;48.020;16.720;2023-04-06T22:55:25;19.03;;;14.03;;
41514;SDS011;27247;48.020;16.720;2023-04-06T22:59:35;21.30;;;14.45;;
41514;SDS011;27247;48.020;16.720;2023-04-06T23:03:46;21.50;;;14.23;;
41514;SDS011;27247;48.020;16.720;2023-04-06T23:07:56;28.73;;;15.63;;
41514;SDS011;27247;48.020;16.720;2023-04-06T23:12:06;24.52;;;14.52;;
41514;SDS011;27247;48.020;16.720;2023-04-06T23:16:17;29.10;;;15.32;;
41514;SDS011;27247;48.020;16.720;2023-04-06T23:20:27;20.83;;;15.17;;
41514;SDS011;27247;48.020;16.720;2023-04-06T23:24:37;25.55;;;14.55;;
41514;SDS011;27247;48.020;16.720;2023-04-06T23:28:48;22.33;;;15.03;;
41514;SDS011;27247;48.020;16.720;2023-04-06T23:32:58;23.00;;;13.97;;
41514;SDS011;27247;48.020;16.720;2023-04-06T23:37:08;22.40;;;14.97;;
41514;SDS011;27247;48.020;16.720;2023-04-06T23:41:19;23.77;;;14.93;;
41514;SDS011;27247;48.020;16.720;2023-04-06T23:45:29;29.25;;;14.70;;
41514;SDS011;27247;48.020;16.720;2023-04-06T23:49:39;23.35;;;14.95;;
41514;SDS011;27247;48.020;16.720;2023-04-06T23:53:50;28.50;;;15.27;;
41514;SDS011;27247;48.020;16.720;2023-04-06T23:58:00;25.23;;;15.33;;
